createdAt,value
2016-10-14T00:02:20.251Z,0
2016-10-14T00:07:16.475Z,0
2016-10-14T00:12:13.067Z,0
2016-10-14T00:17:09.754Z,0
2016-10-14T00:22:06.249Z,0
2016-10-14T00:27:02.415Z,0
2016-10-14T00:31:59.140Z,0
2016-10-14T00:36:56.220Z,0
2016-10-14T00:41:52.510Z,0
2016-10-14T00:46:49.054Z,0
2016-10-14T00:51:46.363Z,0
2016-10-14T00:56:42.767Z,0
2016-10-14T01:01:39.319Z,0
2016-10-14T01:06:35.678Z,0
2016-10-14T01:11:32.733Z,0
2016-10-14T01:16:28.808Z,0
2016-10-14T01:21:25.321Z,0
2016-10-14T01:26:21.826Z,0
2016-10-14T01:31:18.255Z,0
2016-10-14T01:36:14.997Z,0
2016-10-14T01:41:11.405Z,0
2016-10-14T01:46:07.574Z,0
2016-10-14T01:51:04.080Z,0
2016-10-14T01:56:00.667Z,0
2016-10-14T02:00:58.572Z,0
2016-10-14T02:05:54.596Z,0
2016-10-14T02:10:50.804Z,0
2016-10-14T02:15:47.886Z,0
2016-10-14T02:20:44.403Z,0
2016-10-14T02:25:40.899Z,0
2016-10-14T02:30:38.210Z,0
2016-10-14T02:35:34.329Z,0
2016-10-14T02:40:32.002Z,0
2016-10-14T02:45:28.360Z,0
2016-10-14T02:50:24.633Z,0
2016-10-14T02:55:22.366Z,0
2016-10-14T03:00:19.209Z,0
2016-10-14T03:05:15.559Z,0
2016-10-14T03:10:12.075Z,0
2016-10-14T03:15:08.843Z,0
2016-10-14T03:20:05.289Z,0
2016-10-14T03:25:01.796Z,0
2016-10-14T03:29:58.683Z,0
2016-10-14T03:34:56.552Z,0
2016-10-14T03:39:52.987Z,0
2016-10-14T03:44:49.478Z,0
2016-10-14T03:49:46.103Z,0
2016-10-14T03:54:42.685Z,0
2016-10-14T03:59:39.336Z,0
2016-10-14T04:04:35.753Z,0
2016-10-14T04:09:32.204Z,0
2016-10-14T04:14:28.660Z,0
2016-10-14T04:19:24.903Z,0
2016-10-14T04:24:21.348Z,0
2016-10-14T04:29:17.743Z,0
2016-10-14T04:34:14.281Z,0
2016-10-14T04:39:10.984Z,0
2016-10-14T04:44:08.834Z,0
2016-10-14T04:49:05.202Z,0
2016-10-14T04:54:01.564Z,0
2016-10-14T04:58:58.096Z,0
2016-10-14T05:03:55.456Z,0
2016-10-14T05:08:52.081Z,0
2016-10-14T05:13:48.467Z,0
2016-10-14T05:18:44.838Z,0
2016-10-14T05:23:41.733Z,0
2016-10-14T05:28:38.218Z,0
2016-10-14T05:33:34.865Z,8
2016-10-14T05:38:33.811Z,16
2016-10-14T05:43:29.772Z,36
2016-10-14T05:48:27.064Z,64
2016-10-14T05:53:23.785Z,100
2016-10-14T05:58:20.155Z,148
2016-10-14T06:03:16.953Z,248
2016-10-14T06:08:13.463Z,404
2016-10-14T06:13:09.843Z,568
2016-10-14T06:18:09.098Z,740
2016-10-14T06:23:04.936Z,856
2016-10-14T06:28:01.550Z,1100
2016-10-14T06:32:57.901Z,1260
2016-10-14T06:37:54.389Z,1460
2016-10-14T06:42:51.140Z,1784
2016-10-14T06:47:47.703Z,1928
2016-10-14T06:52:44.214Z,1868
2016-10-14T06:57:40.766Z,2008
2016-10-14T07:02:37.343Z,2416
2016-10-14T07:07:34.066Z,2724
2016-10-14T07:12:30.526Z,3092
2016-10-14T07:17:26.932Z,3032
2016-10-14T07:22:23.855Z,3296
2016-10-14T07:27:20.267Z,3356
2016-10-14T07:32:17.342Z,3916
2016-10-14T07:37:14.097Z,5012
2016-10-14T07:42:10.715Z,5000
2016-10-14T07:47:07.553Z,5000
2016-10-14T07:52:04.054Z,4200
2016-10-14T07:57:00.199Z,3972
2016-10-14T08:01:56.947Z,4164
2016-10-14T08:06:53.372Z,4724
2016-10-14T08:11:50.128Z,4852
2016-10-14T08:16:47.191Z,5728
2016-10-14T08:21:43.890Z,5864
2016-10-14T08:26:40.528Z,6804
2016-10-14T08:31:38.092Z,8828
2016-10-14T08:36:35.041Z,8256
2016-10-14T08:41:31.603Z,8552
2016-10-14T08:46:28.411Z,9848
2016-10-14T08:51:27.696Z,9096
2016-10-14T08:56:23.515Z,9212
2016-10-14T09:01:20.598Z,9548
2016-10-14T09:06:19.581Z,9892
2016-10-14T09:11:15.634Z,11016
2016-10-14T09:16:12.367Z,11824
2016-10-14T09:21:09.109Z,7132
2016-10-14T09:26:05.280Z,5888
2016-10-14T09:31:02.248Z,5636
2016-10-14T09:35:58.538Z,7072
2016-10-14T09:40:55.040Z,5372
2016-10-14T09:45:51.562Z,4856
2016-10-14T09:50:48.268Z,4660
2016-10-14T09:55:45.199Z,4832
2016-10-14T10:00:41.808Z,5840
2016-10-14T10:05:38.251Z,5464
2016-10-14T10:10:37.265Z,5092
2016-10-14T10:15:33.796Z,4872
2016-10-14T10:20:31.045Z,5272
2016-10-14T10:25:27.734Z,6008
2016-10-14T10:30:24.190Z,5676
2016-10-14T10:35:21.227Z,5496
2016-10-14T10:40:17.854Z,5420
2016-10-14T10:45:14.293Z,5584
2016-10-14T10:50:11.014Z,5592
2016-10-14T10:55:07.567Z,9080
2016-10-14T11:00:04.855Z,44192
2016-10-14T11:05:02.389Z,41344
2016-10-14T11:09:59.949Z,32128
2016-10-14T11:14:56.792Z,29056
2016-10-14T11:19:53.641Z,42176
2016-10-14T11:24:52.773Z,33984
2016-10-14T11:29:48.926Z,7848
2016-10-14T11:34:45.883Z,5932
2016-10-14T11:39:41.378Z,9296
2016-10-14T11:44:37.754Z,7540
2016-10-14T11:49:36.028Z,8076
2016-10-14T11:54:32.139Z,8152
2016-10-14T11:59:29.950Z,8252
2016-10-14T12:04:26.267Z,8772
2016-10-14T12:09:23.253Z,8768
2016-10-14T12:14:20.085Z,9280
2016-10-14T12:19:16.852Z,9400
2016-10-14T12:24:14.228Z,10308
2016-10-14T12:29:11.072Z,10136
2016-10-14T12:34:10.141Z,9040
2016-10-14T12:39:06.104Z,8436
2016-10-14T12:44:02.881Z,8564
2016-10-14T12:48:59.521Z,7708
2016-10-14T12:53:55.914Z,8296
2016-10-14T12:58:52.135Z,6496
2016-10-14T13:03:48.793Z,7992
2016-10-14T13:08:46.712Z,6700
2016-10-14T13:13:43.636Z,5424
2016-10-14T13:18:40.109Z,4912
2016-10-14T13:23:36.508Z,5876
2016-10-14T13:28:33.051Z,5768
2016-10-14T13:33:29.858Z,5836
2016-10-14T13:38:26.671Z,6452
2016-10-14T13:43:23.075Z,6020
2016-10-14T13:48:19.753Z,6028
2016-10-14T13:53:16.464Z,6500
2016-10-14T13:58:13.249Z,6464
2016-10-14T14:03:10.973Z,5268
2016-10-14T14:08:06.907Z,5528
2016-10-14T14:13:03.441Z,4540
2016-10-14T14:18:00.122Z,4388
2016-10-14T14:22:56.609Z,3812
2016-10-14T14:27:53.036Z,3528
2016-10-14T14:32:49.515Z,3024
2016-10-14T14:37:46.004Z,2776
2016-10-14T14:42:42.458Z,3488
2016-10-14T14:47:39.386Z,3324
2016-10-14T14:52:36.921Z,2732
2016-10-14T14:57:33.174Z,2408
2016-10-14T15:02:29.776Z,2164
2016-10-14T15:07:26.446Z,1892
2016-10-14T15:12:23.347Z,1804
2016-10-14T15:17:19.911Z,1796
2016-10-14T15:22:16.841Z,1624
2016-10-14T15:27:13.337Z,1628
2016-10-14T15:32:10.177Z,1732
2016-10-14T15:37:06.840Z,1748
2016-10-14T15:42:03.429Z,1756
2016-10-14T15:46:59.971Z,1584
2016-10-14T15:51:56.776Z,1436
2016-10-14T15:56:53.250Z,1204
2016-10-14T16:01:49.630Z,928
2016-10-14T16:06:46.100Z,632
2016-10-14T16:11:43.985Z,460
2016-10-14T16:16:40.223Z,348
2016-10-14T16:21:36.760Z,264
2016-10-14T16:26:34.049Z,192
2016-10-14T16:31:30.265Z,128
2016-10-14T16:36:26.202Z,92
2016-10-14T16:41:22.642Z,60
2016-10-14T16:46:19.277Z,32
2016-10-14T16:51:16.002Z,16
2016-10-14T16:56:12.509Z,8
2016-10-14T17:01:08.969Z,4
2016-10-14T17:06:05.446Z,0
2016-10-14T17:11:02.033Z,0
2016-10-14T17:15:58.463Z,0
2016-10-14T17:20:55.010Z,0
2016-10-14T17:25:51.435Z,0
2016-10-14T17:30:47.747Z,0
2016-10-14T17:35:44.234Z,0
2016-10-14T17:40:40.676Z,0
2016-10-14T17:45:37.107Z,0
2016-10-14T17:50:33.837Z,0
2016-10-14T17:55:30.693Z,0
2016-10-14T18:00:27.048Z,0
2016-10-14T18:05:23.656Z,0
2016-10-14T18:10:20.400Z,0
2016-10-14T18:15:16.829Z,0
2016-10-14T18:20:15.682Z,0
2016-10-14T18:25:11.541Z,0
2016-10-14T18:30:08.009Z,0
2016-10-14T18:35:04.391Z,0
2016-10-14T18:40:00.815Z,0
2016-10-14T18:44:56.909Z,0
2016-10-14T18:49:53.286Z,0
2016-10-14T18:54:49.730Z,0
2016-10-14T18:59:46.207Z,0
2016-10-14T19:04:42.730Z,0
2016-10-14T19:09:39.446Z,0
2016-10-14T19:14:35.970Z,0
2016-10-14T19:19:32.267Z,0
2016-10-14T19:24:28.442Z,0
2016-10-14T19:29:24.956Z,0
2016-10-14T19:34:21.433Z,0
2016-10-14T19:39:17.877Z,0
2016-10-14T19:44:14.342Z,0
2016-10-14T19:49:10.753Z,0
2016-10-14T19:54:08.208Z,0
2016-10-14T19:59:04.366Z,0
2016-10-14T20:04:01.145Z,0
2016-10-14T20:08:57.877Z,0
2016-10-14T20:13:55.341Z,0
2016-10-14T20:18:51.956Z,0
2016-10-14T20:23:49.082Z,0
2016-10-14T20:28:45.858Z,0
2016-10-14T20:33:42.748Z,0
2016-10-14T20:38:39.164Z,0
2016-10-14T20:43:35.591Z,0
2016-10-14T20:48:34.559Z,0
2016-10-14T20:53:30.423Z,0
2016-10-14T20:58:26.878Z,0
2016-10-14T21:03:23.289Z,0
2016-10-14T21:08:19.865Z,0
2016-10-14T21:13:16.340Z,0
2016-10-14T21:18:12.630Z,0
2016-10-14T21:23:09.160Z,0
2016-10-14T21:28:06.322Z,0
2016-10-14T21:33:02.821Z,0
2016-10-14T21:37:59.201Z,0
2016-10-14T21:42:55.742Z,0
2016-10-14T21:47:52.313Z,0
2016-10-14T21:52:49.395Z,0
2016-10-14T21:57:45.783Z,0
2016-10-14T22:02:42.386Z,0
2016-10-14T22:07:38.865Z,0
2016-10-14T22:12:35.477Z,0
2016-10-14T22:17:32.268Z,0
2016-10-14T22:22:28.669Z,0
2016-10-14T22:27:25.442Z,0
2016-10-14T22:32:21.944Z,0
2016-10-14T22:37:18.736Z,0
2016-10-14T22:42:15.200Z,0
2016-10-14T22:47:11.803Z,0
2016-10-14T22:52:08.170Z,0
2016-10-14T22:57:04.410Z,0
2016-10-14T23:02:00.805Z,0
2016-10-14T23:06:56.999Z,0
2016-10-14T23:11:53.531Z,0
2016-10-14T23:16:50.310Z,0
2016-10-14T23:21:47.873Z,0
2016-10-14T23:26:44.111Z,0
2016-10-14T23:31:40.927Z,0
2016-10-14T23:36:37.138Z,0
2016-10-14T23:41:33.647Z,0
2016-10-14T23:46:30.158Z,0
2016-10-14T23:51:26.574Z,0
2016-10-14T23:56:23.143Z,0
